Solonovka, Russia
Current Conditions -  °F | °C
As of 10:30 AM on Saturday 25 Oct 2014 (Local Time) from UNOO Reporting Station
Clear Clear  
Wind Chill:   Ceiling: Unl
Heat Index: 18°   Visibility: 6mi
Dew Point: 12°   Wind: 16mph
Humidity: 79%   Direction: 250°WSW
Pressure: 29.74"   Gusts: NA
Location:  54.58°N, 73.95°E
Report Text: UNOO 250430Z 25007MPS CAVOK M08/M11 Q1007 25820550 NOSIG RMKQFE747
Loading
Personal Weather Stations






























Interactive Weather Map
Tropical Storm Tracking
New forecast layout! Learn more

10-Day Weather Forecast

Advertisements
Track Severe Weather on mobile